Time;durP1;ratioP1;P1;durP2;ratioP2;P2;SDS_P1;SDS_P2;PMS_P1;PMS_P2;Temp;Humidity;BMP_temperature;BMP_pressure;BME280_temperature;BME280_humidity;BME280_pressure;Samples;Min_cycle;Max_cycle;Signal;HPM_P1;HPM_P2
2021/05/08 00:00:56;;;;;;;8.10;3.38;;;13.50;99.90;;;;;;5070579;28;20251;-76
2021/05/08 00:03:22;;;;;;;3.70;3.17;;;13.50;99.90;;;;;;5070509;28;20199;-77
2021/05/08 00:05:49;;;;;;;5.03;3.50;;;13.50;99.90;;;;;;5069869;28;20210;-75
2021/05/08 00:08:16;;;;;;;4.70;3.10;;;13.40;99.90;;;;;;5069980;28;20245;-76
2021/05/08 00:10:43;;;;;;;3.95;3.60;;;13.50;99.90;;;;;;5069913;28;20202;-74
2021/05/08 00:13:11;;;;;;;3.35;3.05;;;13.50;99.90;;;;;;5069930;28;20206;-76
2021/05/08 00:15:37;;;;;;;3.75;3.35;;;13.50;99.90;;;;;;5070115;28;20216;-77
2021/05/08 00:18:05;;;;;;;3.38;3.08;;;13.60;99.90;;;;;;5070120;28;20685;-78
2021/05/08 00:20:33;;;;;;;4.00;3.22;;;13.50;99.90;;;;;;5073305;28;20198;-75
2021/05/08 00:22:59;;;;;;;5.20;3.53;;;13.50;99.90;;;;;;5073990;28;20206;-73
2021/05/08 00:25:26;;;;;;;4.57;3.42;;;13.50;99.90;;;;;;5073779;28;20267;-74
2021/05/08 00:27:53;;;;;;;4.80;4.25;;;13.40;99.90;;;;;;5074066;28;20221;-75
2021/05/08 00:30:20;;;;;;;4.07;3.75;;;13.30;99.90;;;;;;5073774;28;20238;-74
2021/05/08 00:32:46;;;;;;;3.47;3.17;;;13.30;99.90;;;;;;5073724;28;20201;-76
2021/05/08 00:35:13;;;;;;;9.35;4.80;;;13.30;99.90;;;;;;5073887;28;20209;-74
2021/05/08 00:37:40;;;;;;;4.95;3.05;;;13.10;99.90;;;;;;5064006;28;20206;-75
2021/05/08 00:40:08;;;;;;;4.03;3.58;;;13.10;99.90;;;;;;5073138;28;20217;-74
2021/05/08 00:42:34;;;;;;;7.97;3.65;;;13.20;99.90;;;;;;5073206;28;20336;-75
2021/05/08 00:45:01;;;;;;;3.75;3.38;;;13.20;99.90;;;;;;5073592;28;20206;-74
2021/05/08 00:47:27;;;;;;;4.32;3.45;;;13.10;99.90;;;;;;5073825;28;20210;-74
2021/05/08 00:49:54;;;;;;;3.60;3.28;;;13.20;99.90;;;;;;5073311;28;20230;-74
2021/05/08 00:52:22;;;;;;;4.70;3.92;;;13.20;99.90;;;;;;5073567;28;20198;-74
2021/05/08 00:54:48;;;;;;;4.32;3.55;;;13.20;99.90;;;;;;5072494;28;20216;-73
2021/05/08 00:57:15;;;;;;;5.65;3.78;;;13.00;99.90;;;;;;5073377;28;20623;-73
2021/05/08 00:59:41;;;;;;;7.88;4.22;;;13.00;99.90;;;;;;5073104;28;20240;-74
2021/05/08 01:02:08;;;;;;;3.47;3.17;;;13.00;99.90;;;;;;5073192;28;20206;-73
2021/05/08 01:04:35;;;;;;;7.18;3.88;;;12.90;99.90;;;;;;5073023;28;20210;-73
2021/05/08 01:07:01;;;;;;;5.90;4.35;;;12.90;99.90;;;;;;5073187;28;20260;-73
2021/05/08 01:09:29;;;;;;;4.78;4.28;;;12.90;99.90;;;;;;5073210;28;20233;-73
2021/05/08 01:11:56;;;;;;;11.98;4.65;;;12.80;99.90;;;;;;5073360;28;20212;-73
2021/05/08 01:14:24;;;;;;;4.05;3.65;;;12.80;99.90;;;;;;5073121;28;20202;-73
2021/05/08 01:16:51;;;;;;;4.80;4.15;;;12.80;99.90;;;;;;5072614;28;20206;-74
2021/05/08 01:19:20;;;;;;;5.60;4.22;;;12.90;99.90;;;;;;5072866;28;20610;-73
2021/05/08 01:21:47;;;;;;;4.97;4.10;;;12.80;99.90;;;;;;5072430;28;20281;-72
2021/05/08 01:24:14;;;;;;;7.10;5.55;;;12.80;99.90;;;;;;5072495;28;20614;-73
2021/05/08 01:26:41;;;;;;;5.55;4.55;;;12.70;99.90;;;;;;5072742;28;20279;-74
2021/05/08 01:29:07;;;;;;;5.18;4.68;;;12.60;99.90;;;;;;5072699;28;20230;-71
2021/05/08 01:31:34;;;;;;;6.82;4.85;;;12.70;99.90;;;;;;5071674;28;20199;-74
2021/05/08 01:34:02;;;;;;;7.13;5.00;;;12.60;99.90;;;;;;5072950;28;20280;-74
2021/05/08 01:36:32;;;;;;;7.30;4.75;;;12.70;99.90;;;;;;5072150;28;20210;-73
2021/05/08 01:38:59;;;;;;;7.15;5.40;;;12.70;99.90;;;;;;5072576;28;20206;-74
2021/05/08 01:41:26;;;;;;;5.65;5.05;;;12.60;99.90;;;;;;5072559;28;20627;-74
2021/05/08 01:43:52;;;;;;;7.80;5.63;;;12.70;99.90;;;;;;5072894;28;20216;-75
2021/05/08 01:46:19;;;;;;;8.40;5.22;;;12.70;99.90;;;;;;5072269;28;20221;-75
2021/05/08 01:48:46;;;;;;;5.00;4.22;;;12.80;99.90;;;;;;5071984;28;20225;-74
2021/05/08 01:51:13;;;;;;;6.10;5.47;;;12.70;99.90;;;;;;5072471;28;20206;-74
2021/05/08 01:53:39;;;;;;;5.88;5.13;;;12.60;99.90;;;;;;5071788;28;20339;-74
2021/05/08 01:56:07;;;;;;;7.18;5.90;;;12.60;99.90;;;;;;5072431;28;20634;-75
2021/05/08 01:58:34;;;;;;;5.25;4.78;;;12.70;99.90;;;;;;5071762;28;20203;-74
2021/05/08 02:01:01;;;;;;;7.68;5.28;;;12.80;99.90;;;;;;5072052;28;20558;-75
2021/05/08 02:03:28;;;;;;;9.63;5.10;;;12.80;99.90;;;;;;5072280;28;20206;-74
2021/05/08 02:05:54;;;;;;;6.45;5.85;;;12.50;99.90;;;;;;5072384;28;20217;-76
2021/05/08 02:08:21;;;;;;;6.30;5.45;;;12.50;99.90;;;;;;5071716;28;20206;-75
2021/05/08 02:10:48;;;;;;;8.80;5.47;;;12.60;99.90;;;;;;5071546;28;20217;-73
2021/05/08 02:13:16;;;;;;;7.57;5.25;;;12.50;99.90;;;;;;5072089;28;20263;-75
2021/05/08 02:15:43;;;;;;;5.68;5.03;;;12.50;99.90;;;;;;5071053;28;20735;-74
2021/05/08 02:18:10;;;;;;;7.77;5.60;;;12.50;99.90;;;;;;5071717;28;20677;-73
2021/05/08 02:20:38;;;;;;;9.82;6.50;;;12.50;99.90;;;;;;5071095;28;20592;-76
2021/05/08 02:23:08;;;;;;;8.75;5.43;;;12.50;99.90;;;;;;5071836;28;20214;-74
2021/05/08 02:25:34;;;;;;;7.68;5.18;;;12.40;99.90;;;;;;5070803;28;20222;-73
2021/05/08 02:28:01;;;;;;;5.45;4.80;;;12.30;99.90;;;;;;5071729;28;20209;-77
2021/05/08 02:30:30;;;;;;;7.55;4.72;;;12.30;99.90;;;;;;5071384;28;20719;-73
2021/05/08 02:32:56;;;;;;;8.43;4.55;;;12.30;99.90;;;;;;5071912;28;20202;-73
2021/05/08 02:35:24;;;;;;;6.40;5.10;;;12.30;99.90;;;;;;5071482;28;20224;-72
2021/05/08 02:37:51;;;;;;;6.47;5.43;;;12.30;99.90;;;;;;5070535;28;20943;-72
2021/05/08 02:40:20;;;;;;;6.25;5.50;;;12.20;99.90;;;;;;5071439;28;20391;-72
2021/05/08 02:42:47;;;;;;;5.72;5.20;;;12.10;99.90;;;;;;5069859;28;20209;-72
2021/05/08 02:45:14;;;;;;;7.50;4.72;;;12.10;99.90;;;;;;5071005;28;20259;-75
2021/05/08 02:47:43;;;;;;;4.88;4.45;;;12.20;99.90;;;;;;5070756;28;20209;-72
2021/05/08 02:50:11;;;;;;;6.50;5.90;;;12.30;99.90;;;;;;5070854;28;20229;-73
2021/05/08 02:52:37;;;;;;;6.20;4.47;;;12.30;99.90;;;;;;5070524;28;20218;-73
2021/05/08 02:55:05;;;;;;;5.70;4.23;;;12.20;99.90;;;;;;5071144;28;20205;-72
2021/05/08 02:57:32;;;;;;;5.80;4.60;;;12.20;99.90;;;;;;5070588;28;20221;-70
2021/05/08 02:59:59;;;;;;;4.67;4.27;;;12.10;99.90;;;;;;5070803;28;20206;-71
2021/05/08 03:02:25;;;;;;;4.50;4.10;;;12.10;99.90;;;;;;5071409;28;20202;-73
2021/05/08 03:04:52;;;;;;;6.22;4.32;;;12.20;99.90;;;;;;5070808;28;20263;-74
2021/05/08 03:07:19;;;;;;;5.07;4.60;;;12.20;99.90;;;;;;5057013;28;20209;-72
2021/05/08 03:09:45;;;;;;;5.13;4.55;;;12.20;99.90;;;;;;5070283;28;20233;-75
2021/05/08 03:12:12;;;;;;;5.32;4.80;;;12.30;99.90;;;;;;5070495;28;20218;-75
2021/05/08 03:14:39;;;;;;;7.27;4.50;;;12.40;99.90;;;;;;5070558;28;20213;-72
2021/05/08 03:17:06;;;;;;;8.40;5.38;;;12.40;99.90;;;;;;5070664;28;20210;-72
2021/05/08 03:19:32;;;;;;;4.90;4.40;;;12.20;99.90;;;;;;5070758;28;20198;-72
2021/05/08 03:21:59;;;;;;;11.18;4.63;;;12.10;99.90;;;;;;5065536;28;20214;-71
2021/05/08 03:24:26;;;;;;;6.28;4.85;;;12.10;99.90;;;;;;5069793;28;20220;-71
2021/05/08 03:26:52;;;;;;;5.57;5.00;;;12.10;99.90;;;;;;5070091;28;20243;-72
2021/05/08 03:29:19;;;;;;;6.03;4.73;;;12.00;99.90;;;;;;5070338;28;20222;-73
2021/05/08 03:31:45;;;;;;;6.17;5.33;;;12.00;99.90;;;;;;5070550;28;20281;-72
2021/05/08 03:34:12;;;;;;;4.90;4.40;;;12.00;99.90;;;;;;5070299;28;20202;-72
2021/05/08 03:36:38;;;;;;;6.40;5.15;;;12.10;99.90;;;;;;5061941;28;20206;-72
2021/05/08 03:39:06;;;;;;;5.20;4.68;;;12.00;99.90;;;;;;5065764;28;20213;-71
2021/05/08 03:41:33;;;;;;;5.97;4.25;;;12.00;99.90;;;;;;5070138;28;20213;-71
2021/05/08 03:43:59;;;;;;;5.23;4.40;;;12.00;99.90;;;;;;5070717;28;20228;-73
2021/05/08 03:46:25;;;;;;;6.57;5.23;;;12.10;99.90;;;;;;5066780;28;20214;-72
2021/05/08 03:48:52;;;;;;;5.70;4.93;;;11.90;99.90;;;;;;5069931;28;20230;-72
2021/05/08 03:51:22;;;;;;;7.90;6.10;;;11.90;99.90;;;;;;5070464;28;20218;-71
2021/05/08 03:53:49;;;;;;;6.30;5.20;;;12.00;99.90;;;;;;5070878;28;20228;-73
2021/05/08 03:56:16;;;;;;;5.63;5.07;;;12.00;99.90;;;;;;5074803;28;20228;-72
2021/05/08 03:58:42;;;;;;;5.78;4.90;;;12.10;99.90;;;;;;5073851;28;20259;-72
2021/05/08 04:01:09;;;;;;;6.40;5.25;;;12.10;99.90;;;;;;5074616;28;20206;-71
2021/05/08 04:03:35;;;;;;;9.63;5.80;;;12.10;99.90;;;;;;5073786;28;20667;-74
2021/05/08 04:06:02;;;;;;;5.17;4.67;;;12.10;99.90;;;;;;5074382;28;20630;-71
2021/05/08 04:08:28;;;;;;;6.23;5.03;;;12.10;99.90;;;;;;5073952;28;20212;-72
2021/05/08 04:10:55;;;;;;;5.87;5.30;;;12.10;99.90;;;;;;5074182;28;20217;-72
2021/05/08 04:13:22;;;;;;;6.25;4.75;;;12.00;99.90;;;;;;5064121;28;20669;-72
2021/05/08 04:15:49;;;;;;;4.73;4.33;;;11.90;99.90;;;;;;5059637;28;20210;-72
2021/05/08 04:18:16;;;;;;;8.10;5.57;;;12.00;99.90;;;;;;5073922;28;20210;-75
2021/05/08 04:20:45;;;;;;;5.73;4.17;;;12.00;99.90;;;;;;5073512;28;20206;-72
2021/05/08 04:23:12;;;;;;;8.93;5.30;;;12.00;99.90;;;;;;5073951;28;20210;-75
2021/05/08 04:25:38;;;;;;;6.47;5.30;;;12.00;99.90;;;;;;5073261;28;20245;-73
2021/05/08 04:28:07;;;;;;;6.40;4.90;;;12.00;99.90;;;;;;5074116;28;20218;-73
2021/05/08 04:30:35;;;;;;;4.97;4.57;;;12.00;99.90;;;;;;5073481;28;20319;-72
2021/05/08 04:33:02;;;;;;;5.13;4.50;;;11.90;99.90;;;;;;5073889;28;20252;-73
2021/05/08 04:35:28;;;;;;;6.67;4.77;;;11.80;99.90;;;;;;5073823;28;20206;-73
2021/05/08 04:37:54;;;;;;;5.87;5.33;;;11.70;99.90;;;;;;5073535;28;20758;-72
2021/05/08 04:40:21;;;;;;;6.17;5.20;;;11.60;99.90;;;;;;5073922;28;20210;-77
2021/05/08 04:42:47;;;;;;;7.83;5.60;;;11.60;99.90;;;;;;5073035;28;20586;-73
2021/05/08 04:45:14;;;;;;;6.13;5.00;;;11.60;99.90;;;;;;5073424;28;20669;-74
2021/05/08 04:47:43;;;;;;;6.53;4.53;;;11.70;99.90;;;;;;5073015;28;20673;-79
2021/05/08 04:50:11;;;;;;;6.07;4.35;;;11.80;99.90;;;;;;5073464;28;20253;-76
2021/05/08 04:52:37;;;;;;;5.17;3.97;;;11.90;99.90;;;;;;5073176;28;20206;-77
2021/05/08 04:55:05;;;;;;;6.43;4.43;;;11.80;99.90;;;;;;5073520;28;20202;-79
2021/05/08 04:57:31;;;;;;;6.17;4.93;;;11.80;99.90;;;;;;5072982;28;20206;-72
2021/05/08 04:59:58;;;;;;;5.77;5.27;;;11.70;99.90;;;;;;5073452;28;20229;-74
2021/05/08 05:02:24;;;;;;;7.10;5.30;;;11.90;99.90;;;;;;5073058;28;20206;-76
2021/05/08 05:04:51;;;;;;;5.27;4.77;;;11.90;99.90;;;;;;5072238;28;20682;-77
2021/05/08 05:07:18;;;;;;;4.30;3.90;;;11.90;99.90;;;;;;5072625;28;20251;-76
2021/05/08 05:09:44;;;;;;;5.40;4.90;;;12.00;99.90;;;;;;5072988;28;20230;-74
2021/05/08 05:12:11;;;;;;;6.97;4.37;;;11.90;99.90;;;;;;5072662;28;20199;-74
2021/05/08 05:14:38;;;;;;;5.20;4.70;;;11.90;99.90;;;;;;5063173;28;20206;-75
2021/05/08 05:17:04;;;;;;;5.43;4.93;;;11.90;99.90;;;;;;5072715;28;20264;-76
2021/05/08 05:19:30;;;;;;;5.40;4.90;;;11.90;99.90;;;;;;5073116;28;20198;-73
2021/05/08 05:21:58;;;;;;;4.33;4.03;;;11.90;99.90;;;;;;5073321;28;20213;-76
2021/05/08 05:24:24;;;;;;;6.10;5.53;;;12.00;99.90;;;;;;5073246;28;20218;-75
2021/05/08 05:26:51;;;;;;;5.47;4.55;;;12.00;99.90;;;;;;5072873;28;20213;-76
2021/05/08 05:29:18;;;;;;;6.27;4.63;;;12.00;99.90;;;;;;5072855;28;20229;-75
2021/05/08 05:31:44;;;;;;;6.63;4.88;;;12.10;99.90;;;;;;5071939;28;20210;-71
2021/05/08 05:34:11;;;;;;;6.00;5.27;;;12.10;99.90;;;;;;5072371;28;20259;-72
2021/05/08 05:36:37;;;;;;;4.23;3.90;;;12.10;99.90;;;;;;5072269;28;20206;-72
2021/05/08 05:39:05;;;;;;;7.70;5.03;;;12.20;99.90;;;;;;5072338;28;20248;-74
2021/05/08 05:41:32;;;;;;;6.00;5.40;;;12.40;99.90;;;;;;5072013;28;20259;-73
2021/05/08 05:44:00;;;;;;;5.10;4.63;;;12.30;99.90;;;;;;5072487;28;20213;-72
2021/05/08 05:46:27;;;;;;;5.07;4.60;;;12.50;99.90;;;;;;5072348;28;20210;-73
2021/05/08 05:48:53;;;;;;;6.47;4.63;;;12.50;99.90;;;;;;5072580;28;20216;-73
2021/05/08 05:51:20;;;;;;;4.53;4.10;;;12.50;99.90;;;;;;5072394;28;20213;-75
2021/05/08 05:53:55;;;;;;;5.33;4.83;;;12.50;99.90;;;;;;5072081;28;20235;-73
2021/05/08 05:56:24;;;;;;;4.73;4.10;;;12.30;99.90;;;;;;5072534;28;20286;-74
2021/05/08 05:58:50;;;;;;;5.78;3.88;;;12.40;99.90;;;;;;5071854;28;20944;-76
2021/05/08 06:01:16;;;;;;;8.27;5.00;;;12.50;99.90;;;;;;5071905;28;20573;-74
2021/05/08 06:03:43;;;;;;;4.63;4.20;;;12.50;99.90;;;;;;5071406;28;20735;-75
2021/05/08 06:06:09;;;;;;;5.80;3.72;;;12.50;99.90;;;;;;5072165;28;20231;-73
2021/05/08 06:08:36;;;;;;;4.65;4.05;;;12.60;99.90;;;;;;5071514;28;20704;-75
2021/05/08 06:11:03;;;;;;;3.35;3.05;;;12.80;99.90;;;;;;5071840;28;20853;-73
2021/05/08 06:13:32;;;;;;;3.10;2.83;;;12.90;99.90;;;;;;5061180;28;20257;-76
2021/05/08 06:15:59;;;;;;;4.20;3.08;;;12.90;99.90;;;;;;5071784;28;20752;-76
2021/05/08 06:18:26;;;;;;;4.53;2.80;;;13.10;99.90;;;;;;5072060;28;20652;-74
2021/05/08 06:20:52;;;;;;;3.70;2.70;;;13.30;99.90;;;;;;5071206;28;20206;-75
2021/05/08 06:23:19;;;;;;;2.65;2.45;;;13.40;99.90;;;;;;5069920;28;20221;-75
2021/05/08 06:25:45;;;;;;;4.10;2.65;;;13.50;99.90;;;;;;5069716;28;20644;-73
2021/05/08 06:28:12;;;;;;;3.22;2.63;;;13.50;99.90;;;;;;5071266;28;20692;-78
2021/05/08 06:30:40;;;;;;;4.40;2.42;;;13.70;99.90;;;;;;5071007;28;20234;-72
2021/05/08 06:33:06;;;;;;;2.15;2.05;;;14.00;99.90;;;;;;5071647;28;20218;-73
2021/05/08 06:35:33;;;;;;;2.80;1.73;;;13.90;99.90;;;;;;5071232;28;20202;-77
2021/05/08 06:38:00;;;;;;;4.18;1.70;;;14.00;99.90;;;;;;5071687;28;20213;-77
2021/05/08 06:40:27;;;;;;;4.13;3.25;;;14.00;99.90;;;;;;5071608;28;20616;-75
2021/05/08 06:42:53;;;;;;;5.97;2.65;;;14.00;99.90;;;;;;5063061;28;20280;-72
2021/05/08 06:45:20;;;;;;;2.33;1.60;;;14.20;99.90;;;;;;5071079;28;20210;-73
2021/05/08 06:47:49;;;;;;;1.85;1.70;;;14.30;99.90;;;;;;5077149;28;20206;-71
2021/05/08 06:50:16;;;;;;;1.85;1.75;;;14.40;99.90;;;;;;5076268;28;20310;-81
2021/05/08 06:52:42;;;;;;;2.30;1.90;;;14.60;99.90;;;;;;5068212;28;20202;-81
2021/05/08 06:55:09;;;;;;;2.42;2.20;;;14.60;99.90;;;;;;5080017;28;20627;-70
2021/05/08 06:57:36;;;;;;;4.10;2.38;;;14.80;99.90;;;;;;5070369;28;20267;-74
2021/05/08 07:00:03;;;;;;;1.95;1.58;;;14.80;99.90;;;;;;5087541;28;20205;-81
2021/05/08 07:02:29;;;;;;;2.50;1.70;;;14.70;99.90;;;;;;5077244;28;20224;-75
2021/05/08 07:04:57;;;;;;;2.47;2.22;;;14.80;99.90;;;;;;5079956;28;20210;-83
2021/05/08 07:07:23;;;;;;;4.82;2.05;;;15.00;99.90;;;;;;5083322;28;20680;-81
2021/05/08 07:09:49;;;;;;;3.40;2.05;;;14.90;99.90;;;;;;5085110;28;20233;-79
2021/05/08 07:12:16;;;;;;;2.05;1.70;;;14.90;99.90;;;;;;5074458;28;20206;-82
2021/05/08 07:14:43;;;;;;;4.13;2.38;;;15.20;99.90;;;;;;5067943;28;20699;-75
2021/05/08 07:17:10;;;;;;;3.30;2.10;;;15.40;99.90;;;;;;5077063;28;20661;-75
2021/05/08 07:19:36;;;;;;;7.05;2.03;;;15.60;99.90;;;;;;5067602;28;20240;-76
2021/05/08 07:22:04;;;;;;;3.08;2.35;;;15.80;99.90;;;;;;5065345;28;20209;-79
2021/05/08 07:24:31;;;;;;;4.35;2.03;;;15.70;99.90;;;;;;5066812;28;20297;-75
2021/05/08 07:26:58;;;;;;;1.80;1.70;;;15.80;99.90;;;;;;5068219;28;20282;-73
2021/05/08 07:29:24;;;;;;;7.55;2.80;;;16.10;99.90;;;;;;5076021;28;20229;-81
2021/05/08 07:31:51;;;;;;;2.15;1.80;;;16.20;99.90;;;;;;5073025;28;20207;-81
2021/05/08 07:34:18;;;;;;;2.83;2.00;;;16.40;99.90;;;;;;5074742;28;20201;-77
2021/05/08 07:36:45;;;;;;;3.08;2.30;;;16.50;99.90;;;;;;5071028;28;20221;-80
2021/05/08 07:39:12;;;;;;;4.40;2.13;;;16.70;99.90;;;;;;5062170;28;20210;-81
2021/05/08 07:41:39;;;;;;;2.13;1.95;;;16.90;99.90;;;;;;5072305;28;20305;-80
2021/05/08 07:44:07;;;;;;;3.30;2.45;;;16.90;99.90;;;;;;5083984;28;20210;-78
2021/05/08 07:46:34;;;;;;;2.20;1.55;;;17.20;99.90;;;;;;5076138;28;20292;-71
2021/05/08 07:49:01;;;;;;;3.00;1.70;;;17.30;99.90;;;;;;5067630;28;20210;-79
2021/05/08 07:51:27;;;;;;;2.63;1.73;;;17.40;99.90;;;;;;5081817;28;20259;-79
2021/05/08 07:53:54;;;;;;;2.45;2.10;;;17.50;99.90;;;;;;5078076;28;20206;-77
2021/05/08 07:56:22;;;;;;;6.53;2.50;;;17.70;99.90;;;;;;5086075;28;20210;-74
2021/05/08 07:58:49;;;;;;;2.50;2.30;;;17.80;99.90;;;;;;5076297;28;20216;-77
2021/05/08 08:01:15;;;;;;;3.15;1.30;;;18.10;99.90;;;;;;5071772;28;20206;-72
2021/05/08 08:03:42;;;;;;;2.15;1.52;;;18.30;99.90;;;;;;5074203;28;20201;-79
2021/05/08 08:06:08;;;;;;;3.42;2.30;;;18.30;99.90;;;;;;5079080;28;20198;-78
2021/05/08 08:08:35;;;;;;;2.13;1.55;;;18.60;99.90;;;;;;5075398;28;20202;-77
2021/05/08 08:11:01;;;;;;;1.70;1.60;;;19.00;99.90;;;;;;5076539;28;20237;-74
2021/05/08 08:13:28;;;;;;;1.67;1.58;;;19.20;99.90;;;;;;5078438;28;20214;-74
2021/05/08 08:15:55;;;;;;;2.88;1.70;;;19.40;99.90;;;;;;5072136;28;20233;-76
2021/05/08 08:18:22;;;;;;;2.17;1.27;;;19.90;99.90;;;;;;5077162;28;20202;-80
2021/05/08 08:20:48;;;;;;;2.97;1.23;;;19.90;99.90;;;;;;5080186;28;20205;-80
2021/05/08 08:23:15;;;;;;;2.08;1.30;;;19.90;99.90;;;;;;5071009;28;20206;-80
2021/05/08 08:25:42;;;;;;;4.18;1.70;;;19.90;99.90;;;;;;5073190;28;20220;-74
2021/05/08 08:28:08;;;;;;;4.00;1.17;;;21.00;99.90;;;;;;5076335;28;20214;-79
2021/05/08 08:30:36;;;;;;;3.00;1.38;;;20.20;99.90;;;;;;5075245;28;20402;-80
2021/05/08 08:33:02;;;;;;;2.00;1.67;;;20.10;99.90;;;;;;5074598;28;20202;-82
2021/05/08 08:35:28;;;;;;;3.20;1.58;;;20.30;99.90;;;;;;5069821;28;20210;-76
2021/05/08 08:37:55;;;;;;;1.85;1.63;;;20.20;99.90;;;;;;5064897;28;20556;-73
2021/05/08 08:40:22;;;;;;;2.05;1.20;;;21.00;99.90;;;;;;5068515;28;20593;-72
2021/05/08 08:42:48;;;;;;;1.75;1.50;;;21.60;99.90;;;;;;5071662;28;20621;-73
2021/05/08 08:45:15;;;;;;;3.00;1.23;;;21.20;99.90;;;;;;5065347;28;20207;-80
2021/05/08 08:47:43;;;;;;;4.95;1.50;;;20.90;99.90;;;;;;5078464;28;20323;-76
2021/05/08 08:50:11;;;;;;;2.63;1.23;;;20.70;99.90;;;;;;5082877;28;20237;-73
2021/05/08 08:52:38;;;;;;;1.52;1.42;;;21.00;99.90;;;;;;5074062;28;20582;-76
2021/05/08 08:55:07;;;;;;;2.28;1.58;;;21.10;99.90;;;;;;5087743;28;20742;-79
2021/05/08 08:57:36;;;;;;;3.50;1.27;;;21.70;99.90;;;;;;5082160;28;20251;-78
2021/05/08 09:00:08;;;;;;;1.98;1.25;;;23.50;99.90;;;;;;5077386;28;20264;-76
2021/05/08 09:02:34;;;;;;;2.72;1.23;;;23.50;99.90;;;;;;5085229;28;20216;-74
2021/05/08 09:05:01;;;;;;;3.10;1.05;;;23.60;99.90;;;;;;5082842;28;20202;-74
2021/05/08 09:07:30;;;;;;;2.47;1.20;;;22.80;99.90;;;;;;5089270;28;20259;-75
2021/05/08 09:09:57;;;;;;;2.45;1.55;;;23.10;99.90;;;;;;5071792;28;20343;-79
2021/05/08 09:12:27;;;;;;;3.45;1.30;;;24.20;99.90;;;;;;5089040;28;20209;-76
2021/05/08 09:14:54;;;;;;;2.78;1.20;;;24.10;99.90;;;;;;5078670;28;20213;-84
2021/05/08 09:17:22;;;;;;;2.47;1.40;;;22.50;99.90;;;;;;5079696;28;20322;-73
2021/05/08 09:19:56;;;;;;;1.52;1.00;;;22.10;99.90;;;;;;5071216;28;20214;-71
2021/05/08 09:22:31;;;;;;;3.42;1.42;;;22.50;99.90;;;;;;5068070;28;20206;-74
2021/05/08 09:25:00;;;;;;;2.78;1.08;;;22.70;99.90;;;;;;5074293;28;20278;-73
2021/05/08 09:27:44;;;;;;;2.28;1.30;;;22.30;99.90;;;;;;5074992;28;20209;-74
2021/05/08 09:30:26;;;;;;;1.48;1.38;;;22.50;99.90;;;;;;5069888;28;20573;-71
2021/05/08 09:33:02;;;;;;;3.17;1.20;;;22.90;99.90;;;;;;5066660;28;20315;-80
2021/05/08 09:35:32;;;;;;;2.70;1.52;;;23.60;99.90;;;;;;5077041;28;20252;-74
2021/05/08 09:38:10;;;;;;;1.38;1.27;;;23.50;99.90;;;;;;5079432;28;20209;-78
2021/05/08 09:40:38;;;;;;;2.03;1.38;;;23.60;99.90;;;;;;5079112;28;20290;-73
2021/05/08 09:43:10;;;;;;;2.65;1.17;;;23.40;99.90;;;;;;5091750;28;20591;-73
2021/05/08 09:45:39;;;;;;;2.35;1.38;;;23.40;99.90;;;;;;5081597;28;20210;-78
2021/05/08 09:48:17;;;;;;;2.13;1.50;;;23.70;99.90;;;;;;5087578;28;20213;-74
2021/05/08 09:50:44;;;;;;;3.17;1.95;;;24.20;99.90;;;;;;5090461;28;20637;-79
2021/05/08 09:53:11;;;;;;;7.18;1.83;;;24.20;99.90;;;;;;5087768;28;20206;-79
2021/05/08 09:55:38;;;;;;;3.28;1.58;;;24.10;99.90;;;;;;5089808;28;20672;-79
2021/05/08 09:58:06;;;;;;;1.83;1.70;;;24.60;99.90;;;;;;5086910;28;20214;-78
2021/05/08 10:00:38;;;;;;;1.40;1.30;;;24.60;99.90;;;;;;5073279;28;20206;-80
2021/05/08 10:03:06;;;;;;;1.95;1.60;;;25.80;99.90;;;;;;5076799;28;20216;-82
2021/05/08 10:05:34;;;;;;;3.45;1.60;;;26.80;99.90;;;;;;5072390;28;20661;-80
2021/05/08 10:08:01;;;;;;;4.45;1.67;;;27.40;99.90;;;;;;5069213;28;20206;-79
2021/05/08 10:10:29;;;;;;;2.10;1.40;;;28.50;99.90;;;;;;5069239;28;20229;-73
2021/05/08 10:12:56;;;;;;;1.98;1.42;;;28.50;99.90;;;;;;5071126;28;20206;-78
2021/05/08 10:15:23;;;;;;;6.57;2.47;;;29.90;99.90;;;;;;5073951;28;20210;-80
2021/05/08 10:17:51;;;;;;;2.15;1.63;;;30.50;99.90;;;;;;5069447;28;20210;-85
2021/05/08 10:20:18;;;;;;;1.70;1.60;;;31.30;99.90;;;;;;5070524;28;20581;-78
2021/05/08 10:22:48;;;;;;;2.20;1.42;;;30.90;99.90;;;;;;5084851;28;20631;-82
2021/05/08 10:25:15;;;;;;;1.95;1.40;;;31.40;99.90;;;;;;5085411;28;20221;-82
2021/05/08 10:27:43;;;;;;;3.90;2.00;;;30.20;99.90;;;;;;5084675;28;20202;-81
2021/05/08 10:30:15;;;;;;;2.97;2.13;;;30.10;99.90;;;;;;5062594;28;20233;-84
2021/05/08 10:32:44;;;;;;;2.47;1.48;;;27.10;99.90;;;;;;5077936;28;20331;-77
2021/05/08 10:35:12;;;;;;;1.70;1.60;;;25.00;99.90;;;;;;5074873;28;20260;-84
2021/05/08 10:37:39;;;;;;;1.42;1.33;;;24.70;99.90;;;;;;5077083;28;20260;-78
2021/05/08 10:40:16;;;;;;;1.80;1.25;;;24.00;99.90;;;;;;5066252;28;20268;-76
2021/05/08 10:42:45;;;;;;;5.25;1.65;;;23.90;99.90;;;;;;5074526;28;20208;-76
2021/05/08 10:45:33;;;;;;;3.35;1.40;;;24.00;99.90;;;;;;5073201;28;20240;-78
2021/05/08 10:48:12;;;;;;;4.15;1.80;;;23.80;99.90;;;;;;5067831;28;20206;-79
2021/05/08 10:50:54;;;;;;;2.75;1.42;;;24.00;99.90;;;;;;5070359;28;20237;-78
2021/05/08 10:53:20;;;;;;;4.35;1.55;;;23.90;99.90;;;;;;5069360;28;20202;-79
2021/05/08 10:55:52;;;;;;;4.32;1.80;;;24.00;99.90;;;;;;5072463;28;20205;-77
2021/05/08 10:58:30;;;;;;;1.50;1.40;;;24.10;99.90;;;;;;5082832;28;20203;-80
2021/05/08 11:00:58;;;;;;;4.88;1.50;;;23.90;99.90;;;;;;5081214;28;20209;-78
2021/05/08 11:03:25;;;;;;;3.42;1.38;;;24.30;99.90;;;;;;5080709;28;20666;-76
2021/05/08 11:05:53;;;;;;;4.25;1.73;;;24.00;99.90;;;;;;5079264;28;20255;-75
2021/05/08 11:08:45;;;;;;;5.95;1.80;;;23.90;99.90;;;;;;5080219;28;20202;-79
2021/05/08 11:11:13;;;;;;;3.25;1.50;;;24.00;99.90;;;;;;5084129;28;20250;-80
2021/05/08 11:14:01;;;;;;;1.60;1.50;;;24.20;99.90;;;;;;5081723;28;20601;-77
2021/05/08 11:16:28;;;;;;;3.97;1.90;;;24.10;99.90;;;;;;5083237;28;20205;-76
2021/05/08 11:18:56;;;;;;;3.72;1.80;;;24.10;99.90;;;;;;5082889;28;20197;-76
2021/05/08 11:21:41;;;;;;;5.18;2.17;;;24.30;99.90;;;;;;5084628;28;20213;-75
2021/05/08 11:24:10;;;;;;;3.03;1.80;;;24.30;99.90;;;;;;5083208;28;20210;-82
2021/05/08 11:26:46;;;;;;;2.75;1.50;;;24.40;99.90;;;;;;5082882;28;20213;-74
2021/05/08 11:29:18;;;;;;;3.03;1.90;;;24.40;99.90;;;;;;5083590;28;20223;-77
2021/05/08 11:31:46;;;;;;;3.38;1.70;;;24.30;99.90;;;;;;5072748;28;20206;-74
2021/05/08 11:34:15;;;;;;;3.47;1.50;;;24.40;99.90;;;;;;5076096;28;20289;-76
2021/05/08 11:36:49;;;;;;;2.92;2.15;;;24.50;99.90;;;;;;5075609;28;20205;-80
2021/05/08 11:39:17;;;;;;;1.50;1.27;;;24.50;99.90;;;;;;5082374;28;20197;-79
2021/05/08 11:41:44;;;;;;;2.13;1.85;;;24.60;99.90;;;;;;5076270;28;20204;-80
2021/05/08 11:44:22;;;;;;;3.67;1.58;;;24.60;99.90;;;;;;5077460;28;20202;-76
2021/05/08 11:46:56;;;;;;;4.55;2.42;;;25.00;99.90;;;;;;5070610;28;20206;-79
2021/05/08 11:49:28;;;;;;;3.10;1.52;;;24.80;99.90;;;;;;5070896;28;20216;-75
2021/05/08 11:51:54;;;;;;;1.98;1.40;;;24.80;99.90;;;;;;5070525;28;20653;-79
2021/05/08 11:54:21;;;;;;;3.30;1.48;;;24.80;99.90;;;;;;5070640;28;20230;-79
2021/05/08 11:56:47;;;;;;;2.58;1.23;;;24.90;99.90;;;;;;5070142;28;20688;-75
2021/05/08 11:59:15;;;;;;;1.48;1.20;;;24.90;99.90;;;;;;5061022;28;20210;-79
2021/05/08 12:01:41;;;;;;;1.75;1.20;;;25.00;99.90;;;;;;5069838;28;20213;-70
2021/05/08 12:04:08;;;;;;;2.33;1.42;;;25.10;99.90;;;;;;5070256;28;20588;-82
2021/05/08 12:06:35;;;;;;;1.67;1.58;;;24.90;99.90;;;;;;5070182;28;20241;-77
2021/05/08 12:09:09;;;;;;;1.60;1.50;;;25.00;99.90;;;;;;5056817;28;20669;-82
2021/05/08 12:11:36;;;;;;;2.60;1.60;;;25.20;99.90;;;;;;5069699;28;20323;-75
2021/05/08 12:14:24;;;;;;;6.43;1.48;;;25.40;99.90;;;;;;5070079;28;20590;-75
2021/05/08 12:16:51;;;;;;;2.70;1.67;;;25.30;99.90;;;;;;5070307;28;20644;-80
2021/05/08 12:19:17;;;;;;;4.55;1.75;;;25.50;99.90;;;;;;5073940;28;20565;-79
2021/05/08 12:21:44;;;;;;;6.95;2.42;;;25.80;99.90;;;;;;5073095;28;20259;-82
2021/05/08 12:24:13;;;;;;;5.53;3.22;;;26.00;99.90;;;;;;5073777;28;20213;-78
2021/05/08 12:26:48;;;;;;;3.28;2.50;;;25.80;99.90;;;;;;5067040;28;20249;-80
2021/05/08 12:29:15;;;;;;;3.58;2.00;;;26.00;99.90;;;;;;5066106;28;20210;-83
2021/05/08 12:31:45;;;;;;;4.30;2.20;;;25.90;99.90;;;;;;5064719;28;20245;-77
2021/05/08 12:34:13;;;;;;;9.15;2.38;;;26.10;99.90;;;;;;5090096;28;20212;-78
2021/05/08 12:36:40;;;;;;;5.72;2.75;;;26.30;99.90;;;;;;5092002;28;20663;-75
2021/05/08 12:39:20;;;;;;;3.03;2.17;;;26.50;99.90;;;;;;5087991;28;20241;-75
2021/05/08 12:41:54;;;;;;;4.20;2.72;;;26.20;99.90;;;;;;5091761;28;20230;-78
2021/05/08 12:44:29;;;;;;;8.18;4.53;;;26.20;99.90;;;;;;5089392;28;20266;-83
2021/05/08 12:47:02;;;;;;;4.10;2.25;;;26.10;99.90;;;;;;5067174;28;20198;-80
2021/05/08 12:49:30;;;;;;;6.90;4.00;;;26.30;99.90;;;;;;5057091;28;20278;-76
2021/05/08 12:51:57;;;;;;;3.00;1.75;;;26.20;99.90;;;;;;5073039;28;20562;-80